Time;durP1;ratioP1;P1;durP2;ratioP2;P2;SDS_P1;SDS_P2;PMS_P1;PMS_P2;Temp;Humidity;BMP_temperature;BMP_pressure;BME280_temperature;BME280_humidity;BME280_pressure;Samples;Min_cycle;Max_cycle;Signal;HPM_P1;HPM_P2
2023/12/30 00:00:05;;;;;;;41.72;23.85;;;;;;;0.51;66.51;93752.38;523586;28;1048;-68
2023/12/30 00:00:21;;;;;;;41.65;23.30;;;;;;;0.59;67.13;93761.59;523898;28;861;-68
2023/12/30 00:00:36;;;;;;;40.83;23.55;;;;;;;0.61;66.71;93767.28;524166;28;810;-67
2023/12/30 00:00:51;;;;;;;41.40;23.60;;;;;;;0.41;67.12;93729.25;523832;28;908;-68
2023/12/30 00:01:07;;;;;;;47.17;24.70;;;;;;;0.64;67.21;93765.59;523868;28;766;-68
2023/12/30 00:01:22;;;;;;;47.90;24.93;;;;;;;0.65;67.29;93758.94;523850;28;810;-68
2023/12/30 00:01:38;;;;;;;49.10;25.42;;;;;;;0.66;67.67;93768.56;522506;28;1479;-68
2023/12/30 00:01:53;;;;;;;50.20;27.03;;;;;;;0.68;67.58;93763.41;521666;28;829;-68
2023/12/30 00:02:09;;;;;;;46.27;26.40;;;;;;;0.68;67.57;93766.88;523182;28;865;-68
2023/12/30 00:02:24;;;;;;;41.07;24.97;;;;;;;0.70;67.47;93763.69;524132;28;801;-68
2023/12/30 00:02:39;;;;;;;40.08;25.25;;;;;;;0.70;67.72;93767.16;522535;28;857;-68
2023/12/30 00:02:55;;;;;;;53.13;27.83;;;;;;;0.72;67.91;93761.22;521818;28;861;-68
2023/12/30 00:03:10;;;;;;;57.43;28.27;;;;;;;0.74;67.83;93769.66;522149;28;863;-68
2023/12/30 00:03:26;;;;;;;46.60;26.40;;;;;;;0.74;67.70;93764.22;524132;28;1024;-68
2023/12/30 00:03:41;;;;;;;45.70;25.73;;;;;;;0.73;68.01;93765.44;524908;28;853;-68
2023/12/30 00:03:57;;;;;;;42.60;25.35;;;;;;;0.67;68.26;93761.94;523875;28;861;-68
2023/12/30 00:04:13;;;;;;;41.80;25.47;;;;;;;0.63;68.00;93766.81;523848;28;1054;-68
2023/12/30 00:04:28;;;;;;;44.25;25.45;;;;;;;0.56;68.26;93761.81;522882;28;936;-68
2023/12/30 00:04:44;;;;;;;41.72;25.13;;;;;;;0.53;68.17;93770.91;523011;28;1732;-68
2023/12/30 00:05:00;;;;;;;40.27;25.13;;;;;;;0.50;68.01;93761.72;522634;28;1243;-68
2023/12/30 00:05:16;;;;;;;47.22;25.90;;;;;;;0.53;68.58;93765.47;521644;28;905;-68
2023/12/30 00:05:31;;;;;;;53.25;28.20;;;;;;;0.55;68.41;93758.34;522957;28;1118;-68
2023/12/30 00:05:47;;;;;;;51.17;29.75;;;;;;;0.57;68.63;93755.13;522656;28;805;-68
2023/12/30 00:06:02;;;;;;;55.00;29.87;;;;;;;0.60;68.86;93762.34;521523;28;849;-68
2023/12/30 00:06:21;;;;;;;55.28;30.23;;;;;;;0.62;68.77;93754.47;521647;28;849;-68
2023/12/30 00:06:36;;;;;;;51.75;29.85;;;;;;;0.65;68.07;93761.66;523777;28;1053;-68
2023/12/30 00:06:52;;;;;;;57.35;30.15;;;;;;;0.66;68.16;93763.16;522556;28;793;-68
2023/12/30 00:07:07;;;;;;;52.53;29.83;;;;;;;0.68;68.32;93764.16;521736;28;821;-68
2023/12/30 00:07:23;;;;;;;49.15;28.35;;;;;;;0.70;68.50;93761.72;521935;28;1674;-68
2023/12/30 00:07:38;;;;;;;51.43;28.93;;;;;;;0.66;68.29;93760.44;522876;28;840;-68
2023/12/30 00:07:54;;;;;;;47.72;28.05;;;;;;;0.62;68.62;93757.94;522968;28;872;-68
2023/12/30 00:08:09;;;;;;;45.20;26.75;;;;;;;0.62;68.51;93757.19;523181;28;1077;-69
2023/12/30 00:08:25;;;;;;;45.47;28.13;;;;;;;0.61;68.82;93761.09;523836;28;912;-68
2023/12/30 00:08:40;;;;;;;46.40;28.47;;;;;;;0.60;68.96;93760.38;523820;28;809;-68
2023/12/30 00:08:57;;;;;;;46.72;27.45;;;;;;;0.58;68.73;93756.63;523791;28;868;-70
2023/12/30 00:09:12;;;;;;;44.60;26.27;;;;;;;0.58;69.11;93762.81;523843;28;901;-68
2023/12/30 00:09:28;;;;;;;41.83;25.97;;;;;;;0.59;68.64;93758.13;523668;28;766;-68
2023/12/30 00:09:43;;;;;;;44.75;25.75;;;;;;;0.59;68.35;93756.16;522553;28;990;-68
2023/12/30 00:09:59;;;;;;;42.03;24.27;;;;;;;0.60;68.71;93763.09;523075;28;1832;-68
2023/12/30 00:10:15;;;;;;;41.13;24.13;;;;;;;0.61;68.41;93755.66;522628;28;841;-68
2023/12/30 00:10:30;;;;;;;45.13;24.20;;;;;;;0.64;68.74;93760.16;523825;28;848;-68
2023/12/30 00:10:46;;;;;;;39.80;24.02;;;;;;;0.64;68.74;93755.47;521747;28;869;-68
2023/12/30 00:11:01;;;;;;;37.72;24.88;;;;;;;0.66;68.80;93755.75;521743;28;898;-68
2023/12/30 00:11:17;;;;;;;42.40;24.97;;;;;;;0.63;68.37;93758.66;522102;28;1077;-68
2023/12/30 00:11:32;;;;;;;44.60;24.37;;;;;;;0.60;68.17;93759.63;524192;28;828;-68
2023/12/30 00:11:47;;;;;;;46.92;23.45;;;;;;;0.56;68.60;93753.66;523887;28;821;-68
2023/12/30 00:12:03;;;;;;;45.40;23.50;;;;;;;0.51;68.61;93759.75;523746;28;762;-68
2023/12/30 00:12:19;;;;;;;42.53;24.13;;;;;;;0.47;68.61;93756.50;521789;28;896;-68
2023/12/30 00:12:34;;;;;;;41.78;23.42;;;;;;;0.47;68.61;93751.81;523805;28;818;-68
2023/12/30 00:12:50;;;;;;;40.33;22.77;;;;;;;0.49;68.46;93760.25;522304;28;1745;-68
2023/12/30 00:13:05;;;;;;;40.47;23.58;;;;;;;0.49;68.96;93754.06;521833;28;865;-68
2023/12/30 00:13:21;;;;;;;40.00;23.47;;;;;;;0.51;69.09;93754.31;523761;28;845;-68
2023/12/30 00:13:37;;;;;;;41.13;22.90;;;;;;;0.29;68.71;93727.66;524407;28;809;-68
2023/12/30 00:13:53;;;;;;;40.22;22.13;;;;;;;0.54;68.68;93753.38;522221;28;857;-68
2023/12/30 00:14:08;;;;;;;40.65;21.80;;;;;;;0.54;68.46;93756.09;521901;28;947;-68
2023/12/30 00:14:24;;;;;;;40.20;21.33;;;;;;;0.56;68.47;93754.38;522407;28;789;-68
2023/12/30 00:14:39;;;;;;;41.90;21.05;;;;;;;0.58;68.44;93751.97;523960;28;1005;-68
2023/12/30 00:14:54;;;;;;;39.60;21.27;;;;;;;0.60;68.06;93759.63;522466;28;804;-69
2023/12/30 00:15:10;;;;;;;35.87;21.17;;;;;;;0.58;68.32;93753.91;521952;28;931;-68
2023/12/30 00:15:25;;;;;;;38.05;20.80;;;;;;;0.62;68.27;93757.94;522736;28;825;-68
2023/12/30 00:15:41;;;;;;;39.10;21.10;;;;;;;0.63;68.31;93764.09;523913;28;859;-67
2023/12/30 00:15:56;;;;;;;35.97;21.38;;;;;;;0.55;68.28;93758.34;523850;28;1971;-68
2023/12/30 00:16:13;;;;;;;37.33;21.50;;;;;;;0.52;68.57;93758.56;522415;28;993;-68
2023/12/30 00:16:29;;;;;;;39.65;20.35;;;;;;;0.52;68.48;93759.28;522999;28;964;-68
2023/12/30 00:16:44;;;;;;;39.55;19.83;;;;;;;0.54;68.71;93764.25;521922;28;794;-68
2023/12/30 00:16:59;;;;;;;40.83;20.13;;;;;;;0.54;68.64;93759.53;521906;28;866;-68
2023/12/30 00:17:15;;;;;;;37.80;20.52;;;;;;;0.53;68.47;93755.34;521885;28;857;-68
2023/12/30 00:17:30;;;;;;;38.63;20.93;;;;;;;0.49;68.33;93759.50;523491;28;811;-68
2023/12/30 00:17:46;;;;;;;43.10;21.60;;;;;;;0.46;68.53;93761.19;523868;28;1136;-68
2023/12/30 00:18:01;;;;;;;42.03;22.83;;;;;;;0.41;68.36;93761.13;524030;28;857;-68
2023/12/30 00:18:17;;;;;;;38.53;22.25;;;;;;;0.33;68.57;93765.47;523842;28;869;-68
2023/12/30 00:18:32;;;;;;;39.10;22.27;;;;;;;0.25;68.96;93761.66;524082;28;844;-68
2023/12/30 00:18:48;;;;;;;42.07;22.60;;;;;;;0.21;69.02;93766.56;521868;28;1914;-68
2023/12/30 00:19:03;;;;;;;36.53;21.20;;;;;;;0.23;69.25;93769.53;522343;28;1481;-69
2023/12/30 00:19:19;;;;;;;32.57;20.30;;;;;;;0.24;69.19;93760.19;523151;28;1029;-68
2023/12/30 00:19:36;;;;;;;33.47;19.85;;;;;;;0.25;69.74;93756.97;522431;28;905;-68
2023/12/30 00:19:53;;;;;;;38.88;20.00;;;;;;;0.23;69.51;93762.16;521762;28;819;-68
2023/12/30 00:20:08;;;;;;;40.63;21.35;;;;;;;0.19;69.57;93760.84;521732;28;810;-68
2023/12/30 00:20:25;;;;;;;39.33;21.67;;;;;;;0.20;69.84;93762.31;522259;28;782;-68
2023/12/30 00:20:41;;;;;;;36.80;20.17;;;;;;;0.22;69.44;93768.78;521875;28;984;-68
2023/12/30 00:20:57;;;;;;;36.67;20.73;;;;;;;0.23;69.49;93762.16;523561;28;813;-68
2023/12/30 00:21:21;;;;;;;37.75;21.83;;;;;;;0.30;69.69;93766.41;522005;28;967;-68
2023/12/30 00:21:36;;;;;;;42.10;22.88;;;;;;;0.34;69.42;93766.97;524154;28;909;-68
2023/12/30 00:21:52;;;;;;;42.00;22.07;;;;;;;0.37;69.49;93769.47;524041;28;844;-68
2023/12/30 00:22:07;;;;;;;38.95;20.90;;;;;;;0.39;69.60;93767.03;523972;28;1121;-68
2023/12/30 00:22:23;;;;;;;36.25;20.33;;;;;;;0.42;69.48;93759.91;523474;28;1736;-68
2023/12/30 00:22:38;;;;;;;34.40;20.23;;;;;;;0.38;69.28;93762.81;522191;28;810;-68
2023/12/30 00:22:54;;;;;;;33.08;19.70;;;;;;;0.38;69.35;93762.06;522303;28;789;-68
2023/12/30 00:23:09;;;;;;;31.50;19.07;;;;;;;0.37;69.11;93766.03;524021;28;929;-68
2023/12/30 00:23:25;;;;;;;31.90;19.38;;;;;;;0.39;69.14;93767.03;524033;28;865;-68
2023/12/30 00:23:42;;;;;;;36.47;20.33;;;;;;;0.42;69.33;93759.91;522167;28;1106;-68
2023/12/30 00:23:57;;;;;;;36.70;19.92;;;;;;;0.42;68.97;93766.09;523969;28;841;-68
2023/12/30 00:24:13;;;;;;;35.22;19.63;;;;;;;0.45;69.19;93769.81;523774;28;893;-68
2023/12/30 00:24:28;;;;;;;37.63;20.27;;;;;;;0.46;69.17;93774.78;524084;28;860;-68
2023/12/30 00:24:44;;;;;;;38.85;19.48;;;;;;;0.47;68.94;93764.66;521778;28;774;-68
2023/12/30 00:24:59;;;;;;;35.07;19.03;;;;;;;0.49;69.07;93764.94;521665;28;848;-68
2023/12/30 00:25:16;;;;;;;32.95;18.83;;;;;;;0.50;69.12;93764.44;522032;28;1636;-68
2023/12/30 00:25:31;;;;;;;33.08;18.80;;;;;;;0.51;68.76;93770.63;523373;28;979;-68
2023/12/30 00:25:47;;;;;;;32.65;19.80;;;;;;;0.53;68.91;93762.75;521774;28;889;-68
2023/12/30 00:26:02;;;;;;;31.90;19.53;;;;;;;0.54;69.06;93770.41;521748;28;853;-68
2023/12/30 00:26:22;;;;;;;31.95;18.88;;;;;;;0.56;69.09;93769.97;523962;28;875;-68
2023/12/30 00:26:38;;;;;;;33.60;18.33;;;;;;;0.58;69.11;93764.78;523663;28;865;-68
2023/12/30 00:26:53;;;;;;;32.77;18.77;;;;;;;0.59;69.20;93767.03;523920;28;930;-68
2023/12/30 00:27:09;;;;;;;34.83;19.98;;;;;;;0.60;69.04;93765.06;523748;28;886;-68
2023/12/30 00:27:24;;;;;;;36.60;19.33;;;;;;;0.60;69.01;93760.38;522541;28;849;-68
2023/12/30 00:27:40;;;;;;;33.63;17.95;;;;;;;0.63;69.31;93767.56;521843;28;1785;-68
2023/12/30 00:27:56;;;;;;;29.63;17.60;;;;;;;0.64;69.25;93763.63;523035;28;858;-68
2023/12/30 00:28:11;;;;;;;30.73;17.80;;;;;;;0.65;69.11;93756.22;521950;28;849;-68
2023/12/30 00:28:27;;;;;;;32.00;18.00;;;;;;;0.62;69.07;93755.22;522837;28;924;-68
2023/12/30 00:28:42;;;;;;;33.57;19.83;;;;;;;0.66;68.71;93761.19;523892;28;1136;-68
2023/12/30 00:28:58;;;;;;;32.20;19.88;;;;;;;0.67;68.84;93768.09;521921;28;880;-68
2023/12/30 00:29:13;;;;;;;33.73;18.60;;;;;;;0.63;68.80;93764.84;521911;28;813;-68
2023/12/30 00:29:28;;;;;;;31.90;18.65;;;;;;;0.58;68.91;93762.06;523094;28;905;-68
2023/12/30 00:29:44;;;;;;;29.70;19.53;;;;;;;0.47;69.24;93761.94;523948;28;857;-68
2023/12/30 00:29:59;;;;;;;31.25;20.80;;;;;;;0.31;69.43;93763.22;522277;28;869;-68
2023/12/30 00:30:15;;;;;;;34.27;21.30;;;;;;;0.27;69.49;93759.22;523156;28;1096;-68
2023/12/30 00:30:30;;;;;;;37.20;21.20;;;;;;;0.28;69.66;93758.00;524336;28;865;-68
2023/12/30 00:30:46;;;;;;;33.10;20.63;;;;;;;0.30;69.58;93767.19;523848;28;781;-68
2023/12/30 00:31:01;;;;;;;34.93;21.77;;;;;;;0.33;69.57;93762.75;523934;28;770;-67
2023/12/30 00:31:24;;;;;;;41.70;23.17;;;;;;;0.37;69.69;93766.03;523976;28;758;-68
2023/12/30 00:31:39;;;;;;;36.38;22.25;;;;;;;0.40;69.07;93762.34;523885;28;871;-67
2023/12/30 00:31:55;;;;;;;32.75;20.90;;;;;;;0.43;69.17;93764.13;523889;28;1109;-68
2023/12/30 00:32:10;;;;;;;34.47;20.50;;;;;;;0.46;69.12;93760.44;523931;28;896;-68
2023/12/30 00:32:25;;;;;;;32.25;19.83;;;;;;;0.48;69.01;93763.41;523349;28;1590;-68
2023/12/30 00:32:41;;;;;;;33.50;20.00;;;;;;;0.49;68.95;93760.25;522980;28;837;-68
2023/12/30 00:32:56;;;;;;;31.25;19.23;;;;;;;0.51;69.19;93760.50;522495;28;866;-68
2023/12/30 00:33:12;;;;;;;26.60;18.30;;;;;;;0.55;68.85;93761.06;523987;28;1067;-68
2023/12/30 00:33:27;;;;;;;28.35;19.15;;;;;;;0.56;68.36;93759.09;523444;28;1001;-68
2023/12/30 00:33:43;;;;;;;28.80;20.07;;;;;;;0.56;68.74;93767.97;521767;28;837;-67
2023/12/30 00:34:00;;;;;;;28.35;19.67;;;;;;;0.58;68.82;93765.53;521881;28;857;-67
2023/12/30 00:34:15;;;;;;;30.17;19.33;;;;;;;0.61;68.42;93769.25;521915;28;845;-68
2023/12/30 00:34:34;;;;;;;35.33;19.87;;;;;;;0.52;68.05;93750.41;522986;28;818;-68
2023/12/30 00:34:49;;;;;;;33.88;20.17;;;;;;;0.61;68.17;93761.84;521881;28;833;-68
2023/12/30 00:35:07;;;;;;;31.90;19.87;;;;;;;0.62;68.36;93760.66;522717;28;1135;-68
2023/12/30 00:35:22;;;;;;;29.50;18.92;;;;;;;0.61;67.80;93761.09;524024;28;872;-68
2023/12/30 00:35:38;;;;;;;30.47;19.10;;;;;;;0.59;68.03;93761.59;524226;28;808;-68
2023/12/30 00:35:53;;;;;;;31.98;19.27;;;;;;;0.56;67.94;93761.81;523883;28;900;-68
2023/12/30 00:36:09;;;;;;;34.00;19.87;;;;;;;0.51;67.90;93757.03;523969;28;762;-68
2023/12/30 00:36:25;;;;;;;34.20;20.17;;;;;;;0.45;68.28;93765.13;524210;28;786;-68
2023/12/30 00:36:43;;;;;;;34.35;19.85;;;;;;;0.42;68.64;93760.66;522914;28;1848;-68
2023/12/30 00:36:59;;;;;;;34.40;20.48;;;;;;;0.42;68.66;93760.66;522040;28;971;-68
2023/12/30 00:37:19;;;;;;;36.00;21.77;;;;;;;0.44;68.76;93758.19;523949;28;786;-68
2023/12/30 00:37:35;;;;;;;38.80;21.60;;;;;;;0.46;68.51;93766.63;523439;28;896;-68
2023/12/30 00:37:53;;;;;;;35.42;20.02;;;;;;;0.48;68.42;93763.41;521772;28;881;-68
2023/12/30 00:38:08;;;;;;;29.90;18.98;;;;;;;0.49;68.41;93760.25;523257;28;1129;-68
2023/12/30 00:38:24;;;;;;;26.80;17.95;;;;;;;0.51;68.60;93757.03;524200;28;975;-68
2023/12/30 00:38:39;;;;;;;27.05;17.67;;;;;;;0.51;67.86;93754.31;523186;28;777;-68
2023/12/30 00:38:55;;;;;;;28.47;19.03;;;;;;;0.53;67.95;93757.31;521763;28;1914;-68
2023/12/30 00:39:11;;;;;;;29.65;19.55;;;;;;;0.54;68.20;93762.25;521547;28;1685;-68
2023/12/30 00:39:26;;;;;;;35.67;20.25;;;;;;;0.52;68.19;93753.84;522969;28;777;-68
2023/12/30 00:39:42;;;;;;;41.83;21.27;;;;;;;0.57;68.22;93763.28;523040;28;1004;-68
2023/12/30 00:39:57;;;;;;;39.75;21.77;;;;;;;0.58;67.95;93759.34;521696;28;795;-68
2023/12/30 00:40:13;;;;;;;38.63;22.70;;;;;;;0.58;67.64;93759.34;521620;28;861;-68
2023/12/30 00:40:28;;;;;;;40.00;23.52;;;;;;;0.58;67.69;93757.38;522834;28;957;-68
2023/12/30 00:40:44;;;;;;;41.10;23.17;;;;;;;0.59;67.75;93760.84;523863;28;904;-68
2023/12/30 00:40:59;;;;;;;40.45;22.50;;;;;;;0.60;67.36;93756.91;523808;28;849;-68
2023/12/30 00:41:15;;;;;;;37.10;22.13;;;;;;;0.60;67.72;93759.63;523568;28;1115;-68
2023/12/30 00:41:30;;;;;;;35.42;22.67;;;;;;;0.60;67.92;93763.09;523367;28;869;-68
2023/12/30 00:41:46;;;;;;;40.83;23.70;;;;;;;0.59;67.72;93761.59;523962;28;880;-68
2023/12/30 00:42:01;;;;;;;41.50;23.20;;;;;;;0.61;67.47;93756.41;522403;28;971;-68
2023/12/30 00:42:17;;;;;;;39.75;23.33;;;;;;;0.63;67.61;93761.38;521942;28;786;-68
2023/12/30 00:42:32;;;;;;;40.70;23.50;;;;;;;0.62;67.68;93763.38;524147;28;836;-68
2023/12/30 00:42:48;;;;;;;38.95;24.02;;;;;;;0.62;67.64;93757.19;523892;28;1140;-68
2023/12/30 00:43:03;;;;;;;39.00;24.87;;;;;;;0.61;67.78;93761.84;521999;28;837;-68
2023/12/30 00:43:19;;;;;;;39.63;23.77;;;;;;;0.57;67.33;93764.03;521819;28;912;-68
2023/12/30 00:43:36;;;;;;;36.10;22.13;;;;;;;0.30;67.67;93725.69;523895;28;785;-69
2023/12/30 00:43:51;;;;;;;34.75;21.20;;;;;;;0.42;68.06;93743.59;523997;28;813;-68
2023/12/30 00:44:07;;;;;;;38.72;22.05;;;;;;;0.48;68.06;93761.47;522109;28;916;-68
2023/12/30 00:44:23;;;;;;;40.07;22.57;;;;;;;0.45;67.98;93757.00;522106;28;833;-68
2023/12/30 00:44:39;;;;;;;40.58;22.88;;;;;;;0.44;67.66;93763.63;522115;28;1638;-68
2023/12/30 00:44:54;;;;;;;38.73;23.50;;;;;;;0.46;68.04;93757.72;523599;28;846;-67
2023/12/30 00:45:10;;;;;;;38.10;22.83;;;;;;;0.45;67.73;93759.72;522273;28;753;-68
2023/12/30 00:45:25;;;;;;;37.37;21.83;;;;;;;0.46;68.18;93761.19;522598;28;1128;-68
2023/12/30 00:45:41;;;;;;;36.43;21.37;;;;;;;0.43;67.79;93758.69;522379;28;868;-68
2023/12/30 00:45:56;;;;;;;41.97;22.50;;;;;;;0.36;67.70;93769.94;525706;28;822;-68
2023/12/30 00:46:11;;;;;;;40.70;22.70;;;;;;;0.28;67.56;93766.88;527062;28;1049;-68
2023/12/30 00:46:27;;;;;;;36.03;22.35;;;;;;;0.24;67.63;93766.34;528355;27;802;-68
2023/12/30 00:46:42;;;;;;;38.73;22.20;;;;;;;0.24;67.83;93762.91;526665;28;836;-68
2023/12/30 00:46:58;;;;;;;37.75;22.15;;;;;;;0.26;67.94;93769.31;525882;28;838;-68
2023/12/30 00:47:14;;;;;;;38.50;22.77;;;;;;;0.29;67.96;93767.63;525728;28;793;-68
2023/12/30 00:47:29;;;;;;;39.65;23.33;;;;;;;0.30;68.04;93763.72;527052;27;881;-69
2023/12/30 00:47:45;;;;;;;38.17;22.60;;;;;;;0.33;67.95;93768.16;526897;28;1057;-69
2023/12/30 00:48:00;;;;;;;35.23;20.63;;;;;;;0.35;67.98;93765.72;523737;28;813;-69
2023/12/30 00:48:15;;;;;;;33.20;20.27;;;;;;;0.37;68.06;93769.47;522872;28;1591;-68
2023/12/30 00:48:31;;;;;;;30.50;20.73;;;;;;;0.40;67.72;93767.78;522292;28;766;-68
2023/12/30 00:48:47;;;;;;;29.87;20.57;;;;;;;0.39;67.93;93767.03;522577;28;782;-68
2023/12/30 00:49:02;;;;;;;35.92;21.10;;;;;;;0.40;67.90;93760.38;523747;28;845;-69
2023/12/30 00:49:18;;;;;;;36.78;21.95;;;;;;;0.38;67.71;93768.25;523177;28;970;-68
2023/12/30 00:49:33;;;;;;;38.57;22.83;;;;;;;0.37;67.90;93763.31;524065;28;860;-68
2023/12/30 00:49:49;;;;;;;41.95;23.50;;;;;;;0.41;68.08;93766.56;523736;28;782;-68
2023/12/30 00:50:04;;;;;;;37.33;22.00;;;;;;;0.42;67.75;93770.75;523749;28;856;-69
2023/12/30 00:50:20;;;;;;;34.47;20.63;;;;;;;0.42;67.64;93763.38;523166;28;891;-68
2023/12/30 00:50:35;;;;;;;30.80;19.33;;;;;;;0.44;67.61;93768.31;523889;28;770;-68
2023/12/30 00:50:51;;;;;;;29.23;18.65;;;;;;;0.45;67.34;93764.38;523048;28;1622;-68
2023/12/30 00:51:06;;;;;;;30.93;19.17;;;;;;;0.45;67.47;93767.84;522636;28;906;-69
2023/12/30 00:51:22;;;;;;;32.42;19.55;;;;;;;0.46;67.51;93761.19;523427;28;825;-69
2023/12/30 00:51:37;;;;;;;31.70;19.27;;;;;;;0.46;67.24;93757.72;521664;28;763;-68
2023/12/30 00:51:53;;;;;;;31.33;19.48;;;;;;;0.42;66.96;93759.91;521597;28;786;-68
2023/12/30 00:52:08;;;;;;;30.27;19.63;;;;;;;0.32;66.64;93755.84;521726;28;1039;-68
2023/12/30 00:52:24;;;;;;;29.88;19.85;;;;;;;0.28;66.94;93764.16;522186;28;845;-68
2023/12/30 00:52:39;;;;;;;30.20;19.63;;;;;;;0.19;66.88;93760.84;523706;28;1018;-68
2023/12/30 00:52:55;;;;;;;34.00;19.40;;;;;;;0.10;66.91;93750.88;523466;28;1405;-68
2023/12/30 00:53:10;;;;;;;33.50;19.20;;;;;;;0.05;67.01;93765.09;522119;28;1606;-68
2023/12/30 00:53:25;;;;;;;28.35;18.25;;;;;;;0.00;66.83;93757.66;522877;28;805;-68
2023/12/30 00:53:41;;;;;;;30.67;18.30;;;;;;;-0.07;66.96;93761.50;523771;28;766;-68
2023/12/30 00:53:56;;;;;;;32.33;18.40;;;;;;;-0.08;67.31;93759.25;521801;28;818;-68
2023/12/30 00:54:12;;;;;;;27.40;17.55;;;;;;;-0.10;67.31;93758.97;521783;28;1730;-68
2023/12/30 00:54:27;;;;;;;28.77;18.03;;;;;;;-0.15;67.36;93746.81;522867;28;805;-68
2023/12/30 00:54:42;;;;;;;32.95;19.55;;;;;;;-0.16;67.38;93755.44;522964;28;1144;-69
2023/12/30 00:54:58;;;;;;;31.43;19.17;;;;;;;-0.18;67.37;93763.31;521685;28;809;-69
2023/12/30 00:55:13;;;;;;;30.73;18.48;;;;;;;-0.18;67.58;93758.63;521620;28;904;-69
2023/12/30 00:55:29;;;;;;;33.43;18.60;;;;;;;-0.17;67.47;93764.78;521861;28;1425;-68
2023/12/30 00:55:44;;;;;;;34.08;19.42;;;;;;;-0.15;68.06;93760.38;523572;28;1024;-73
2023/12/30 00:56:00;;;;;;;33.13;19.37;;;;;;;-0.13;67.68;93762.66;523442;28;852;-72
2023/12/30 00:56:15;;;;;;;31.08;18.33;;;;;;;-0.12;67.80;93762.16;523653;28;808;-72
2023/12/30 00:56:31;;;;;;;30.73;19.00;;;;;;;-0.09;67.80;93760.47;523967;28;920;-72
2023/12/30 00:56:46;;;;;;;29.70;19.40;;;;;;;-0.07;67.67;93761.50;523623;28;1697;-72
2023/12/30 00:57:02;;;;;;;32.60;19.37;;;;;;;-0.05;67.44;93761.78;522637;28;915;-72
2023/12/30 00:57:17;;;;;;;36.78;20.08;;;;;;;-0.02;67.86;93760.06;521686;28;877;-72
2023/12/30 00:57:33;;;;;;;34.70;19.73;;;;;;;-0.01;67.68;93762.31;523503;28;889;-72
2023/12/30 00:57:48;;;;;;;29.05;17.88;;;;;;;0.00;67.76;93761.09;523784;28;802;-72
2023/12/30 00:58:04;;;;;;;28.67;17.77;;;;;;;-0.01;67.60;93761.56;521699;28;908;-72
2023/12/30 00:58:20;;;;;;;29.15;18.13;;;;;;;-0.01;67.28;93765.03;521751;28;793;-72
2023/12/30 00:58:36;;;;;;;34.25;18.58;;;;;;;0.00;67.62;93763.09;523640;28;899;-72
2023/12/30 00:58:51;;;;;;;37.50;19.08;;;;;;;0.00;67.17;93766.53;523708;28;1975;-72
2023/12/30 00:59:07;;;;;;;34.27;18.90;;;;;;;0.04;67.39;93765.59;521941;28;841;-72
2023/12/30 00:59:22;;;;;;;32.17;18.83;;;;;;;0.04;67.55;93766.34;521753;28;916;-72
2023/12/30 00:59:37;;;;;;;30.15;18.42;;;;;;;0.06;67.18;93761.19;522665;28;1622;-72
2023/12/30 00:59:53;;;;;;;31.90;18.73;;;;;;;0.07;66.97;93768.09;523113;28;857;-68
2023/12/30 01:00:09;;;;;;;33.90;19.00;;;;;;;0.08;66.56;93764.16;522233;28;924;-69
2023/12/30 01:00:24;;;;;;;33.63;18.52;;;;;;;0.09;67.00;93764.91;522425;28;1418;-68
2023/12/30 01:00:40;;;;;;;35.50;18.73;;;;;;;0.10;66.81;93763.69;522308;28;824;-68
2023/12/30 01:00:55;;;;;;;37.63;18.83;;;;;;;0.09;66.90;93762.22;522920;28;858;-68
2023/12/30 01:01:11;;;;;;;33.23;18.37;;;;;;;0.09;66.80;93765.66;521602;28;852;-68
2023/12/30 01:01:26;;;;;;;29.02;18.42;;;;;;;0.10;66.88;93766.41;522148;28;917;-68
2023/12/30 01:01:42;;;;;;;28.27;18.33;;;;;;;0.11;66.82;93768.63;522657;28;1102;-68
2023/12/30 01:01:57;;;;;;;32.65;19.60;;;;;;;0.14;66.63;93767.69;523568;28;1148;-68
2023/12/30 01:02:12;;;;;;;33.00;20.27;;;;;;;0.14;66.83;93764.22;521669;28;782;-68
2023/12/30 01:02:28;;;;;;;33.17;19.77;;;;;;;0.15;66.72;93761.06;522739;28;845;-68
2023/12/30 01:02:43;;;;;;;36.33;20.27;;;;;;;0.18;66.72;93770.19;521749;28;890;-68
2023/12/30 01:02:59;;;;;;;34.77;19.30;;;;;;;0.19;66.14;93766.28;521812;28;1007;-68
2023/12/30 01:03:14;;;;;;;33.42;19.25;;;;;;;0.20;66.34;93765.78;521829;28;916;-68
2023/12/30 01:03:30;;;;;;;34.30;19.63;;;;;;;0.23;66.52;93764.09;523514;28;1036;-68
2023/12/30 01:03:45;;;;;;;32.88;18.40;;;;;;;0.22;66.55;93763.34;522015;28;1314;-68
2023/12/30 01:04:01;;;;;;;33.47;18.97;;;;;;;0.25;66.60;93764.38;521762;28;865;-68
2023/12/30 01:04:16;;;;;;;32.67;19.48;;;;;;;0.00;66.46;93731.22;522568;28;1761;-68
2023/12/30 01:04:32;;;;;;;33.77;19.10;;;;;;;0.25;66.56;93767.09;524204;28;778;-68
2023/12/30 01:04:47;;;;;;;34.70;19.75;;;;;;;0.23;66.80;93764.09;522512;28;1057;-68
2023/12/30 01:05:03;;;;;;;33.22;20.10;;;;;;;0.23;66.68;93762.16;521802;28;929;-67
2023/12/30 01:05:19;;;;;;;36.53;20.85;;;;;;;0.22;66.67;93759.91;523600;28;978;-68
2023/12/30 01:05:35;;;;;;;36.37;20.50;;;;;;;0.23;66.82;93767.56;524154;28;830;-68
2023/12/30 01:05:50;;;;;;;33.50;19.40;;;;;;;0.21;66.53;93775.44;523943;28;857;-68
2023/12/30 01:06:06;;;;;;;36.00;19.50;;;;;;;0.18;66.68;93772.91;523866;28;832;-68
2023/12/30 01:06:22;;;;;;;35.25;20.02;;;;;;;0.16;66.57;93769.94;522740;28;1047;-68
2023/12/30 01:06:37;;;;;;;35.75;20.80;;;;;;;0.15;66.79;93765.75;523570;28;810;-68
2023/12/30 01:06:54;;;;;;;40.03;21.80;;;;;;;0.17;66.93;93769.47;522731;28;1412;-68
2023/12/30 01:07:09;;;;;;;38.28;21.67;;;;;;;0.19;66.74;93771.72;522710;28;929;-68
2023/12/30 01:07:24;;;;;;;40.73;22.03;;;;;;;0.19;66.67;93774.44;523624;28;802;-68
2023/12/30 01:07:40;;;;;;;41.65;22.63;;;;;;;0.15;66.97;93763.03;521918;28;1086;-67
2023/12/30 01:07:56;;;;;;;42.43;23.20;;;;;;;0.12;67.17;93769.38;522532;28;805;-68
2023/12/30 01:08:11;;;;;;;47.72;24.27;;;;;;;0.11;67.19;93768.63;523830;28;1654;-68
2023/12/30 01:08:27;;;;;;;45.40;24.58;;;;;;;0.11;67.29;93765.19;523988;28;1021;-68
2023/12/30 01:08:42;;;;;;;47.47;24.57;;;;;;;0.09;67.28;93764.91;523850;28;822;-68
2023/12/30 01:08:58;;;;;;;48.10;24.93;;;;;;;0.08;67.33;93768.84;523271;28;913;-68
2023/12/30 01:09:13;;;;;;;46.38;25.92;;;;;;;0.07;67.43;93772.75;522818;28;833;-69
2023/12/30 01:09:29;;;;;;;47.20;25.87;;;;;;;0.06;67.49;93769.31;524165;28;853;-68
2023/12/30 01:09:44;;;;;;;41.97;24.97;;;;;;;0.05;67.43;93759.69;522285;28;1745;-68
2023/12/30 01:09:59;;;;;;;39.87;24.33;;;;;;;0.06;67.68;93765.84;523315;28;985;-68
2023/12/30 01:10:18;;;;;;;45.47;24.00;;;;;;;0.06;67.23;93774.75;522237;28;806;-68
2023/12/30 01:10:33;;;;;;;50.13;24.75;;;;;;;0.04;67.30;93769.06;523712;28;884;-68
2023/12/30 01:10:49;;;;;;;48.53;25.27;;;;;;;0.05;67.43;93773.25;521956;28;869;-68
2023/12/30 01:11:04;;;;;;;45.17;25.43;;;;;;;0.05;67.49;93770.53;521672;28;790;-68
2023/12/30 01:11:20;;;;;;;42.15;24.92;;;;;;;0.05;67.51;93770.53;522004;28;1079;-68
2023/12/30 01:11:35;;;;;;;41.80;24.27;;;;;;;0.06;67.45;93766.63;523795;28;1026;-68
2023/12/30 01:11:51;;;;;;;44.35;24.98;;;;;;;0.08;67.63;93769.59;522154;28;924;-68
2023/12/30 01:12:06;;;;;;;46.40;26.23;;;;;;;0.11;67.77;93773.34;521657;28;869;-68
2023/12/30 01:12:22;;;;;;;45.92;26.95;;;;;;;0.11;67.63;93771.34;521810;28;1603;-68
2023/12/30 01:12:37;;;;;;;47.37;27.27;;;;;;;0.13;67.82;93765.47;522591;28;750;-68
2023/12/30 01:12:53;;;;;;;49.20;26.13;;;;;;;0.15;67.86;93761.06;521610;28;786;-68
2023/12/30 01:13:09;;;;;;;50.53;25.40;;;;;;;0.17;67.70;93771.44;521631;28;830;-68
2023/12/30 01:13:24;;;;;;;47.00;25.00;;;;;;;0.16;67.66;93765.25;522741;28;1050;-68
2023/12/30 01:13:40;;;;;;;44.50;24.50;;;;;;;0.14;68.21;93764.97;523857;28;829;-68
2023/12/30 01:13:56;;;;;;;44.88;24.73;;;;;;;0.08;68.13;93763.41;523742;28;877;-68
2023/12/30 01:14:11;;;;;;;41.80;24.77;;;;;;;0.07;68.31;93761.91;523962;28;844;-68
2023/12/30 01:14:27;;;;;;;38.00;24.38;;;;;;;0.04;68.36;93760.91;523818;28;779;-68
2023/12/30 01:14:42;;;;;;;39.70;23.83;;;;;;;0.00;68.34;93758.38;523934;28;805;-68
2023/12/30 01:14:58;;;;;;;40.33;23.98;;;;;;;0.01;68.52;93764.56;522895;28;1483;-67
2023/12/30 01:15:13;;;;;;;37.67;24.27;;;;;;;0.00;68.56;93763.81;522638;28;770;-67
2023/12/30 01:15:28;;;;;;;39.92;24.92;;;;;;;0.03;68.50;93767.53;523447;28;865;-68